Gallup, NM (87375)

8:08 AM MDT on August 29, 2014 (GMT -0600)
Gallup Municipal | Change Station
CLOSE
Current Station
Airport
Location: Gallup,
Elevation: 6470 ft
Nearby Weather Stations

Elev 6470 ft 35.51 °N, 108.79 °W | Updated 15 minutes ago

Clear
Clear
51 °F
Feels Like 51 °F
N
0
Wind Variable Wind from North

Today
High -- | Low -- °F
--% Chance of Precip.
Yesterday
High -- | Low -- °F
Precip. -- in
6:44 AM 7:46 PM
Waxing Crescent, 14% visible
Pressure 29.90 in
Visibility 10.0 miles
Clouds Clear
Dew Point 36 °F
Humidity 56%
Rainfall 0.00 in
Snow Depth Not available.
UV 1 out of 12
Pollen 8.50 out of 12
Air Quality Not available.
Flu Activity Not available.
METAR KGUP 291353Z AUTO 00000KT 10SM CLR 11/02 A3027 RMK AO2 SLP123 T01060022

More Conditions Fewer Conditions

Pressure 29.90 in
Visibility 10.0 miles
Clouds Clear
Dew Point 36 °F
Humidity 56%
Rainfall 0.00 in
Snow Depth Not available.
UV 1 out of 12
Pollen 8.50 out of 12
Air Quality Not available.
Flu Activity Not available.
METAR KGUP 291353Z AUTO 00000KT 10SM CLR 11/02 A3027 RMK AO2 SLP123 T01060022

More Conditions Fewer Conditions

10-Day Weather Forecast

Almanac

Astronomy

Aug. 29, 2014 Rise Set
Actual Time 6:44 AM MDT 7:46 PM MDT
Civil Twilight 6:18 AM MDT 8:12 PM MDT
Nautical Twilight 5:47 AM MDT 8:43 PM MDT
Astronomical Twilight 5:15 AM MDT 9:15 PM MDT
Moon 10:28 AM MDT 9:55 PM MDT
Length of Visible Light 13h 53m
Length of Day
13h 01m
Tomorrow will be 2m 8s shorter.
Waxing Crescent, 14% of the Moon is Illuminated
Today
Waxing Crescent
Sep 2
First Quarter
Sep 8
Full
Sep 15
Last Quarter
Sep 24
New

Today's Extremes

State Highs State Lows

Community

WunderPhotos

Upload Photos

1,748,240 photos uploaded!

Nearby

Snow Depth

Station Depth Elevation
Rice Park 0 in 8460 ft
Quemazon 2 in 9500 ft
Silver Creek Divide 15 in 9000 ft
Bateman 0 in 9300 ft
Chamita 0 in 8400 ft

Earthquake Activity

City Distance Mag. Time & Date
No recent earthquake activity has been reported nearby.
Minimum magnitude displayed is 2.5.

Coastal Water Temperatures

Place Temperature
No Stations Reporting

Nearby Weather Stations